page 4602 of 1011355 registered users

eBook PostsUsers

  1. 0brakestem85 registered @ 2012-11-25 05:02:44, last login @ 2012-11-25 05:38:31
  2. 0hate6jeep registered @ 2012-11-25 05:05:14, last login @ 2012-11-25 05:05:14
  3. 0climbavenue4 registered @ 2012-11-25 05:07:50, last login @ 2012-11-25 05:52:53
  4. 0kokotea registered @ 2012-11-25 05:15:30, last login @ 2012-11-25 05:15:30
  5. 0flatpizza78 registered @ 2012-11-25 05:15:42, last login @ 2012-11-25 05:15:42
  6. 0nursemirror5 registered @ 2012-11-25 05:16:40, last login @ 2012-11-25 05:16:40
  7. 0gearkayak2 registered @ 2012-11-25 05:16:41, last login @ 2012-11-25 05:16:41
  8. 0lawyer3viola registered @ 2012-11-25 05:16:47, last login @ 2012-11-25 05:16:47
  9. 0kokotea1111 registered @ 2012-11-25 05:17:08, last login @ 2012-11-25 05:17:08
  10. 0edgeson59 registered @ 2012-11-25 05:17:10, last login @ 2012-11-25 05:17:10
  11. 099ovkxgudq registered @ 2012-11-25 05:17:44, last login @ 2012-11-25 05:17:44
  12. 0flashlight2653 registered @ 2012-11-25 05:19:38, last login @ 2012-11-25 05:19:38
  13. 0cover32mole registered @ 2012-11-25 05:21:45, last login @ 2012-11-25 05:43:51
  14. 0sugar0spruce registered @ 2012-11-25 05:25:57, last login @ 2012-11-25 05:25:57
  15. 0yew7maple registered @ 2012-11-25 05:27:37, last login @ 2012-11-25 05:27:37
  16. 0guescoconutbiko registered @ 2012-11-25 05:28:00, last login @ 2012-11-25 05:28:00
  17. 0reeleffect1 registered @ 2012-11-25 05:31:47, last login @ 2012-11-25 05:39:29
  18. 0firednation67 registered @ 2012-11-25 05:34:38, last login @ 2012-11-25 05:54:33
  19. 0organflesh7 registered @ 2012-11-25 05:35:41, last login @ 2012-11-25 05:35:41
  20. 0colorbomb23 registered @ 2012-11-25 05:35:43, last login @ 2012-11-25 05:35:43
  21. 0hub9chair registered @ 2012-11-25 05:36:47, last login @ 2012-11-25 05:36:47
  22. 0fuelsock5 registered @ 2012-11-25 05:37:35, last login @ 2012-11-25 05:37:35
  23. 0fog75anime registered @ 2012-11-25 05:38:33, last login @ 2012-11-25 05:38:33
  24. 0carol7agenda registered @ 2012-11-25 05:38:38, last login @ 2012-11-25 05:38:38
  25. 0jacobshackel76 registered @ 2012-11-25 05:39:12, last login @ 2012-11-25 05:39:12
  26. 0crimeswim8 registered @ 2012-11-25 05:39:20, last login @ 2012-11-25 05:39:20
  27. 0park9cart registered @ 2012-11-25 05:42:17, last login @ 2012-11-25 05:42:17
  28. 0slashsong76 registered @ 2012-11-25 05:44:39, last login @ 2012-11-25 05:44:39
  29. 0pghskip registered @ 2012-11-25 05:44:43, last login @ 2012-11-25 05:44:43
  30. 0walrus81legal registered @ 2012-11-25 05:46:17, last login @ 2012-11-25 05:46:17
  31. 0grouse28donkey registered @ 2012-11-25 05:46:42, last login @ 2012-11-25 05:46:42
  32. 0laura0sack registered @ 2012-11-25 05:47:46, last login @ 2012-11-25 05:47:46
  33. 0riddle18french registered @ 2012-11-25 05:49:23, last login @ 2012-11-25 05:49:23
  34. 0profit6toad registered @ 2012-11-25 05:50:47, last login @ 2012-11-25 05:50:47
  35. 0twistbadger0 registered @ 2012-11-25 05:51:26, last login @ 2012-11-25 05:51:26
  36. 0kursdolara3 registered @ 2012-11-25 05:51:56, last login @ 2012-11-25 05:51:56
  37. 0harborbead79 registered @ 2012-11-25 05:54:45, last login @ 2012-11-25 05:54:45
  38. 0dock54candle registered @ 2012-11-25 05:54:59, last login @ 2012-11-25 05:54:59
  39. 0Sandylim24 registered @ 2012-11-25 05:55:07, last login @ 2012-11-25 05:55:07
  40. 0crocus7fat registered @ 2012-11-25 05:55:12, last login @ 2012-11-25 05:55:12
  41. 0kejp registered @ 2012-11-25 05:57:26, last login @ 2012-11-25 05:57:26
  42. 0baboonview5 registered @ 2012-11-25 05:58:03, last login @ 2012-11-25 05:58:03
  43. 0fogcart9 registered @ 2012-11-25 06:00:35, last login @ 2012-11-25 06:00:35
  44. 0uncle0event registered @ 2012-11-25 06:01:21, last login @ 2012-11-25 06:01:21
  45. 0VSLNarasimham registered @ 2012-11-25 06:01:53, last login @ 2012-11-25 06:31:51
  46. 0rub3cicada registered @ 2012-11-25 06:03:32, last login @ 2012-11-25 06:03:32
  47. 0TomHBaron registered @ 2012-11-25 06:04:46, last login @ 2012-11-25 06:25:42
  48. 0scenemuscle5 registered @ 2012-11-25 06:08:18, last login @ 2012-11-25 06:08:18
  49. 0tasteshrimp6 registered @ 2012-11-25 06:09:20, last login @ 2012-11-25 06:09:20
  50. 0cotton5toast registered @ 2012-11-25 06:11:20, last login @ 2012-11-25 06:11:20
  51. 0gray4beetle registered @ 2012-11-25 06:18:52, last login @ 2012-11-25 06:18:52
  52. 0beetlecross45 registered @ 2012-11-25 06:21:11, last login @ 2012-11-25 06:21:11
  53. 0congafan31 registered @ 2012-11-25 06:22:39, last login @ 2012-11-25 06:22:39
  54. 0lutepantry0 registered @ 2012-11-25 06:28:47, last login @ 2012-11-25 06:28:47
  55. 0wind83tempo registered @ 2012-11-25 06:29:00, last login @ 2012-11-25 06:29:00
  56. 0helencalf7 registered @ 2012-11-25 06:29:13, last login @ 2012-11-25 06:29:13
  57. 0VanessaRi registered @ 2012-11-25 06:30:50, last login @ 2012-11-25 06:30:50
  58. 0range1song registered @ 2012-11-25 06:31:41, last login @ 2012-11-25 06:31:41
  59. 0moatgrain3 registered @ 2012-11-25 06:32:01, last login @ 2012-11-25 06:32:01
  60. 0brace62singer registered @ 2012-11-25 06:33:18, last login @ 2012-11-25 06:33:18
  61. 0soup69dugout registered @ 2012-11-25 06:33:35, last login @ 2012-11-25 06:33:35
  62. 0menthol registered @ 2012-11-25 06:36:28, last login @ 2012-11-25 06:37:06
  63. 0beavergiant99 registered @ 2012-11-25 06:36:47, last login @ 2012-11-25 06:36:47
  64. 0freeze35kendo registered @ 2012-11-25 06:38:20, last login @ 2012-11-25 06:38:20
  65. 0chance4japan registered @ 2012-11-25 06:39:09, last login @ 2012-11-25 06:39:09
  66. 0bengalview53 registered @ 2012-11-25 06:39:32, last login @ 2012-11-25 06:39:32
  67. 0fang7soccer registered @ 2012-11-25 06:39:37, last login @ 2012-11-25 06:39:37
  68. 0nervepea5 registered @ 2012-11-25 06:39:46, last login @ 2012-11-25 06:39:46
  69. 0smokehouse34 registered @ 2012-11-25 06:40:32, last login @ 2012-11-25 06:40:32
  70. 0birchnancy97 registered @ 2012-11-25 06:40:32, last login @ 2012-11-25 06:40:32
  71. 0danielbike78 registered @ 2012-11-25 06:41:29, last login @ 2012-11-25 06:41:29
  72. 0dustgame9 registered @ 2012-11-25 06:42:53, last login @ 2012-11-25 06:42:53
  73. 0poppy3epoxy registered @ 2012-11-25 06:43:08, last login @ 2012-11-25 06:43:08
  74. 0era3ghana registered @ 2012-11-25 06:43:49, last login @ 2012-11-25 06:43:49
  75. 0spring47bonsai registered @ 2012-11-25 06:44:19, last login @ 2012-11-25 06:44:19
  76. 0baycanvas6 registered @ 2012-11-25 06:51:05, last login @ 2012-11-25 06:51:05
  77. 0skingirl43 registered @ 2012-11-25 06:51:09, last login @ 2012-11-25 06:51:09
  78. 0march4puma registered @ 2012-11-25 06:51:12, last login @ 2012-11-25 06:51:12
  79. 0maple5jam registered @ 2012-11-25 06:52:43, last login @ 2012-11-25 06:52:43
  80. 0corkgrey57 registered @ 2012-11-25 06:53:06, last login @ 2012-11-25 06:53:06
  81. 0margin60hope registered @ 2012-11-25 06:53:39, last login @ 2012-11-25 06:53:39
  82. 0lungeback6 registered @ 2012-11-25 06:55:54, last login @ 2012-11-25 06:55:54
  83. 0second0oak registered @ 2012-11-25 06:56:13, last login @ 2012-11-25 06:56:13
  84. 0ariesasia4 registered @ 2012-11-25 06:59:48, last login @ 2012-11-25 06:59:48
  85. 0hatetest7 registered @ 2012-11-25 07:00:13, last login @ 2012-11-25 07:00:13
  86. 0jumpdash16 registered @ 2012-11-25 07:01:24, last login @ 2012-11-25 07:47:37
  87. 0blockplow97 registered @ 2012-11-25 07:01:27, last login @ 2012-11-25 07:01:27
  88. 0augustweeder98 registered @ 2012-11-25 07:01:38, last login @ 2012-11-25 07:01:38
  89. 0RobertHGayton registered @ 2012-11-25 07:06:43, last login @ 2012-11-25 07:12:34
  90. 0doctor70potato registered @ 2012-11-25 07:07:34, last login @ 2012-11-25 07:07:34
  91. 0nestbrow0 registered @ 2012-11-25 07:09:33, last login @ 2012-11-25 07:09:33
  92. 0rat77heaven registered @ 2012-11-25 07:12:53, last login @ 2012-11-25 07:12:53
  93. 0kissrail7 registered @ 2012-11-25 07:14:41, last login @ 2012-11-25 07:14:41
  94. 0hubcap31family registered @ 2012-11-25 07:16:39, last login @ 2012-11-25 07:16:39
  95. 0dead24pimple registered @ 2012-11-25 07:20:32, last login @ 2012-11-25 07:20:32
  96. 0jumper6talk registered @ 2012-11-25 07:20:46, last login @ 2012-11-25 08:00:27
  97. 0barbanne registered @ 2012-11-25 07:24:53, last login @ 2012-11-25 07:24:53
  98. 0Morlochus00 registered @ 2012-11-25 07:26:15, last login @ 2012-11-25 07:26:15
  99. 0changemile63 registered @ 2012-11-25 07:28:13, last login @ 2012-11-25 07:28:13
  100. 0shake12muscle registered @ 2012-11-25 07:28:15, last login @ 2012-11-25 07:28:15
  101. 0person57chin registered @ 2012-11-25 07:28:26, last login @ 2012-11-25 07:28:26

More...

[4612] [4611] [4610] [4609] [4608] [4607] [4606] [4605] [4604] [4603] [4602] [4601] [4600] [4599] [4598] [4597] [4596] [4595] [4594] [4593] ...[1]
Back to Top